createdAt,value
2023-04-23T00:01:20.575Z,11.91
2023-04-23T00:03:50.042Z,11.99
2023-04-23T00:06:20.373Z,12.04
2023-04-23T00:08:47.938Z,11.97
2023-04-23T00:11:14.604Z,11.94
2023-04-23T00:13:41.458Z,12.00
2023-04-23T00:16:08.541Z,11.97
2023-04-23T00:18:35.123Z,12.01
2023-04-23T00:21:04.237Z,11.94
2023-04-23T00:23:30.793Z,11.86
2023-04-23T00:25:57.230Z,11.79
2023-04-23T00:28:23.754Z,11.68
2023-04-23T00:30:50.268Z,11.71
2023-04-23T00:33:16.841Z,11.68
2023-04-23T00:35:43.254Z,11.63
2023-04-23T00:38:09.883Z,11.65
2023-04-23T00:40:37.140Z,11.71
2023-04-23T00:43:04.243Z,11.74
2023-04-23T00:45:30.917Z,11.62
2023-04-23T00:47:58.548Z,11.62
2023-04-23T00:50:25.700Z,11.64
2023-04-23T00:52:52.098Z,11.65
2023-04-23T00:55:20.993Z,11.77
2023-04-23T00:57:48.484Z,11.81
2023-04-23T01:00:15.549Z,11.86
2023-04-23T01:02:43.749Z,11.82
2023-04-23T01:05:11.822Z,11.68
2023-04-23T01:07:38.621Z,11.61
2023-04-23T01:10:05.696Z,11.56
2023-04-23T01:12:32.213Z,11.51
2023-04-23T01:14:58.968Z,11.46
2023-04-23T01:17:26.741Z,11.50
2023-04-23T01:19:53.259Z,11.53
2023-04-23T01:22:20.126Z,11.45
2023-04-23T01:24:47.390Z,11.46
2023-04-23T01:27:13.821Z,11.41
2023-04-23T01:29:41.431Z,11.30
2023-04-23T01:32:08.674Z,11.25
2023-04-23T01:34:35.553Z,11.12
2023-04-23T01:37:04.036Z,11.02
2023-04-23T01:39:30.841Z,11.16
2023-04-23T01:41:57.360Z,11.10
2023-04-23T01:44:23.742Z,11.13
2023-04-23T01:46:50.309Z,11.10
2023-04-23T01:49:16.877Z,11.08
2023-04-23T01:51:43.542Z,11.10
2023-04-23T01:54:09.989Z,11.10
2023-04-23T01:56:36.498Z,11.04
2023-04-23T01:59:03.020Z,11.01
2023-04-23T02:01:46.551Z,11.00
2023-04-23T02:04:14.733Z,10.90
2023-04-23T02:06:43.563Z,10.94
2023-04-23T02:09:10.538Z,10.86
2023-04-23T02:11:37.192Z,10.86
2023-04-23T02:14:05.489Z,10.84
2023-04-23T02:16:32.851Z,10.77
2023-04-23T02:18:59.353Z,10.83
2023-04-23T02:21:27.339Z,10.79
2023-04-23T02:23:54.092Z,10.62
2023-04-23T02:26:22.729Z,10.76
2023-04-23T02:28:49.168Z,10.66
2023-04-23T02:31:16.617Z,10.70
2023-04-23T02:33:43.127Z,10.63
2023-04-23T02:36:11.597Z,10.67
2023-04-23T02:38:38.239Z,10.67
2023-04-23T02:41:04.846Z,10.61
2023-04-23T02:43:31.380Z,10.70
2023-04-23T02:45:57.823Z,10.67
2023-04-23T02:48:26.051Z,10.63
2023-04-23T02:50:52.518Z,10.65
2023-04-23T02:53:19.006Z,10.64
2023-04-23T02:55:45.483Z,10.63
2023-04-23T02:58:12.287Z,10.76
2023-04-23T03:00:38.751Z,10.74
2023-04-23T03:03:05.383Z,10.75
2023-04-23T03:05:31.994Z,10.72
2023-04-23T03:07:58.379Z,10.67
2023-04-23T03:10:24.864Z,10.68
2023-04-23T03:12:51.226Z,10.70
2023-04-23T03:15:17.960Z,10.74
2023-04-23T03:17:44.424Z,10.67
2023-04-23T03:20:11.658Z,10.67
2023-04-23T03:22:38.099Z,10.69
2023-04-23T03:25:05.194Z,10.74
2023-04-23T03:27:31.884Z,10.72
2023-04-23T03:29:58.298Z,10.64
2023-04-23T03:32:24.766Z,10.66
2023-04-23T03:34:51.184Z,10.71
2023-04-23T03:37:17.610Z,10.67
2023-04-23T03:39:44.124Z,10.69
2023-04-23T03:42:10.628Z,10.65
2023-04-23T03:44:37.055Z,10.62
2023-04-23T03:47:03.715Z,10.58
2023-04-23T03:49:30.164Z,10.60
2023-04-23T03:51:56.570Z,10.63
2023-04-23T03:54:24.599Z,10.61
2023-04-23T03:56:51.098Z,10.59
2023-04-23T03:59:17.567Z,10.57
2023-04-23T04:01:44.093Z,10.48
2023-04-23T04:04:10.863Z,10.52
2023-04-23T04:06:37.370Z,10.51
2023-04-23T04:09:03.809Z,10.52
2023-04-23T04:11:30.240Z,10.43
2023-04-23T04:13:56.680Z,10.45
2023-04-23T04:16:23.184Z,10.40
2023-04-23T04:18:54.459Z,10.24
2023-04-23T04:21:22.684Z,10.17
2023-04-23T04:23:49.170Z,10.07
2023-04-23T04:26:15.599Z,10.09
2023-04-23T04:28:42.031Z,9.86
2023-04-23T04:31:10.339Z,9.95
2023-04-23T04:33:39.694Z,9.84
2023-04-23T04:36:08.651Z,9.94
2023-04-23T04:38:37.914Z,9.89
2023-04-23T04:41:04.967Z,9.98
2023-04-23T04:43:32.534Z,9.84
2023-04-23T04:46:01.991Z,9.91
2023-04-23T04:48:28.455Z,9.80
2023-04-23T04:50:55.402Z,9.76
2023-04-23T04:53:21.986Z,9.84
2023-04-23T04:55:48.539Z,9.70
2023-04-23T04:58:14.979Z,9.73
2023-04-23T05:00:41.452Z,9.74
2023-04-23T05:03:08.399Z,9.77
2023-04-23T05:05:35.428Z,9.88
2023-04-23T05:08:04.397Z,10.00
2023-04-23T05:10:30.965Z,10.01
2023-04-23T05:12:57.989Z,10.13
2023-04-23T05:15:24.575Z,10.18
2023-04-23T05:17:53.680Z,10.21
2023-04-23T05:20:21.327Z,10.25
2023-04-23T05:22:48.244Z,10.31
2023-04-23T05:25:14.837Z,10.35
2023-04-23T05:27:41.354Z,10.48
2023-04-23T05:30:09.526Z,10.63
2023-04-23T05:32:36.569Z,10.65
2023-04-23T05:35:03.913Z,10.54
2023-04-23T05:37:30.816Z,10.54
2023-04-23T05:39:58.248Z,10.76
2023-04-23T05:42:24.928Z,10.97
2023-04-23T05:44:51.499Z,11.90
2023-04-23T05:47:17.961Z,11.73
2023-04-23T05:49:44.326Z,13.60
2023-04-23T05:52:11.414Z,15.75
2023-04-23T05:54:37.842Z,15.79
2023-04-23T05:57:05.081Z,16.77
2023-04-23T05:59:32.035Z,17.61
2023-04-23T06:01:58.605Z,16.94
2023-04-23T06:04:25.329Z,17.28
2023-04-23T06:06:51.899Z,18.03
2023-04-23T06:09:18.505Z,18.71
2023-04-23T06:11:45.136Z,19.27
2023-04-23T06:14:11.572Z,19.59
2023-04-23T06:16:38.000Z,19.94
2023-04-23T06:19:04.497Z,20.24
2023-04-23T06:21:31.337Z,21.49
2023-04-23T06:23:57.953Z,19.17
2023-04-23T06:26:24.420Z,18.46
2023-04-23T06:28:50.959Z,17.96
2023-04-23T06:31:17.487Z,18.82
2023-04-23T06:33:44.086Z,19.54
2023-04-23T06:36:11.061Z,17.71
2023-04-23T06:38:38.224Z,16.29
2023-04-23T06:41:04.980Z,15.78
2023-04-23T06:43:31.502Z,15.17
2023-04-23T06:45:58.026Z,14.26
2023-04-23T06:48:25.946Z,17.87
2023-04-23T06:50:52.445Z,18.75
2023-04-23T06:53:19.059Z,17.96
2023-04-23T06:55:45.753Z,17.57
2023-04-23T06:58:13.653Z,20.20
2023-04-23T07:00:41.318Z,20.11
2023-04-23T07:03:08.053Z,20.90
2023-04-23T07:05:34.674Z,21.58
2023-04-23T07:08:01.197Z,20.66
2023-04-23T07:10:27.676Z,19.57
2023-04-23T07:12:54.292Z,21.57
2023-04-23T07:15:20.808Z,22.47
2023-04-23T07:17:47.321Z,21.15
2023-04-23T07:20:13.838Z,20.54
2023-04-23T07:22:40.341Z,21.34
2023-04-23T07:25:08.748Z,21.94
2023-04-23T07:27:35.409Z,20.83
2023-04-23T07:30:02.408Z,20.68
2023-04-23T07:32:29.397Z,19.53
2023-04-23T07:34:58.780Z,21.14
2023-04-23T07:37:25.329Z,22.47
2023-04-23T07:39:53.695Z,21.68
2023-04-23T07:42:20.196Z,22.53
2023-04-23T07:44:46.746Z,22.48
2023-04-23T07:47:13.224Z,22.05
2023-04-23T07:49:40.019Z,22.54
2023-04-23T07:52:06.661Z,22.39
2023-04-23T07:54:33.066Z,20.86
2023-04-23T07:56:59.526Z,21.80
2023-04-23T07:59:26.249Z,22.13
2023-04-23T08:01:52.908Z,19.93
2023-04-23T08:06:46.111Z,20.25
2023-04-23T08:09:12.569Z,19.65
2023-04-23T08:11:39.006Z,21.38
2023-04-23T08:14:06.166Z,20.27
2023-04-23T08:16:33.046Z,19.48
2023-04-23T08:19:05.322Z,20.12
2023-04-23T08:21:33.314Z,20.01
2023-04-23T08:24:00.402Z,21.02
2023-04-23T08:26:26.928Z,20.90
2023-04-23T08:28:53.382Z,20.36
2023-04-23T08:31:26.544Z,20.95
2023-04-23T08:33:53.811Z,21.76
2023-04-23T08:36:20.515Z,20.98
2023-04-23T08:38:47.121Z,21.22
2023-04-23T08:41:15.208Z,21.45
2023-04-23T08:43:51.580Z,19.63
2023-04-23T08:46:19.051Z,21.24
2023-04-23T08:48:47.413Z,21.14
2023-04-23T08:51:18.556Z,18.35
2023-04-23T08:53:49.692Z,19.43
2023-04-23T08:56:16.180Z,20.08
2023-04-23T08:58:43.572Z,18.78
2023-04-23T09:01:10.217Z,18.56
2023-04-23T09:03:38.128Z,17.04
2023-04-23T09:06:05.117Z,17.28
2023-04-23T09:08:32.379Z,16.96
2023-04-23T09:11:01.769Z,18.17
2023-04-23T09:13:31.828Z,18.18
2023-04-23T09:15:58.350Z,16.69
2023-04-23T09:18:24.985Z,17.11
2023-04-23T09:20:53.528Z,17.77
2023-04-23T09:23:23.272Z,18.15
2023-04-23T09:25:49.765Z,18.29
2023-04-23T09:28:16.205Z,17.10
2023-04-23T09:30:48.365Z,17.73
2023-04-23T09:33:17.237Z,19.04
2023-04-23T09:35:44.114Z,18.88
2023-04-23T09:38:10.895Z,18.66
2023-04-23T09:40:37.944Z,18.12
2023-04-23T09:43:05.548Z,18.16
2023-04-23T09:45:32.872Z,18.88
2023-04-23T09:47:59.523Z,18.93
2023-04-23T09:50:38.937Z,19.56
2023-04-23T09:53:07.194Z,20.13
2023-04-23T09:55:39.182Z,20.13
2023-04-23T09:58:10.810Z,19.78
2023-04-23T10:00:38.913Z,20.49
2023-04-23T10:03:07.807Z,19.63
2023-04-23T10:05:59.703Z,20.35
2023-04-23T10:08:26.345Z,20.62
2023-04-23T10:11:03.120Z,19.25
2023-04-23T10:13:40.100Z,19.76
2023-04-23T10:16:14.489Z,18.85
2023-04-23T10:18:51.164Z,18.67
2023-04-23T10:21:19.514Z,17.71
2023-04-23T10:23:48.923Z,18.51
2023-04-23T10:26:16.955Z,18.51
2023-04-23T10:28:48.044Z,18.42
2023-04-23T10:31:15.869Z,18.18
2023-04-23T10:33:56.046Z,19.16
2023-04-23T10:36:29.053Z,18.78
2023-04-23T10:39:00.308Z,19.42
2023-04-23T10:41:39.390Z,18.69
2023-04-23T10:44:05.991Z,19.10
2023-04-23T10:46:34.766Z,18.89
2023-04-23T10:49:16.513Z,19.21
2023-04-23T10:54:19.614Z,17.85
2023-04-23T10:56:46.122Z,18.29
2023-04-23T10:59:20.486Z,17.36
2023-04-23T11:01:51.206Z,17.13
2023-04-23T11:04:28.786Z,16.81
2023-04-23T11:06:57.897Z,16.63
2023-04-23T11:09:41.910Z,16.69
2023-04-23T11:12:12.121Z,16.25
2023-04-23T11:14:42.551Z,16.36
2023-04-23T11:17:15.966Z,15.88
2023-04-23T11:20:11.719Z,15.89
2023-04-23T11:22:48.940Z,15.75
2023-04-23T11:25:26.992Z,16.10
2023-04-23T11:27:55.299Z,16.10
2023-04-23T11:30:27.108Z,16.30
2023-04-23T11:32:55.582Z,16.41
2023-04-23T11:35:30.261Z,16.56
2023-04-23T11:37:57.125Z,17.03
2023-04-23T11:40:24.304Z,16.51
2023-04-23T11:42:53.796Z,16.84
2023-04-23T11:45:22.560Z,16.97
2023-04-23T11:47:51.587Z,16.37
2023-04-23T11:50:23.623Z,16.41
2023-04-23T11:52:50.259Z,16.09
2023-04-23T11:55:17.092Z,16.03
2023-04-23T11:57:48.773Z,15.95
2023-04-23T12:00:22.613Z,16.24
2023-04-23T12:02:56.097Z,16.40
2023-04-23T12:05:35.189Z,16.38
2023-04-23T12:08:10.931Z,16.64
2023-04-23T12:10:55.564Z,17.06
2023-04-23T12:13:24.302Z,17.53
2023-04-23T12:15:56.501Z,17.68
2023-04-23T12:18:33.626Z,18.14
2023-04-23T12:21:06.971Z,17.84
2023-04-23T12:35:49.996Z,16.93
2023-04-23T12:38:27.554Z,18.50
2023-04-23T12:40:55.890Z,19.56
2023-04-23T12:43:22.507Z,20.04
2023-04-23T12:45:49.406Z,21.33
2023-04-23T12:48:15.968Z,22.14
2023-04-23T12:50:42.912Z,21.81
2023-04-23T12:53:09.448Z,22.09
2023-04-23T12:55:35.928Z,22.60
2023-04-23T12:58:02.399Z,22.72
2023-04-23T13:00:28.878Z,23.50
2023-04-23T13:02:56.606Z,23.14
2023-04-23T13:05:23.815Z,22.35
2023-04-23T13:07:50.300Z,21.81
2023-04-23T13:10:16.801Z,21.78
2023-04-23T13:12:43.221Z,22.09
2023-04-23T13:15:11.959Z,22.95
2023-04-23T13:17:38.883Z,22.17
2023-04-23T13:20:06.137Z,21.59
2023-04-23T13:22:33.203Z,22.36
2023-04-23T13:24:59.735Z,22.10
2023-04-23T13:27:28.660Z,21.28
2023-04-23T13:29:56.025Z,20.11
2023-04-23T13:32:23.824Z,18.88
2023-04-23T13:34:50.340Z,21.16
2023-04-23T13:37:16.880Z,21.02
2023-04-23T13:39:43.783Z,21.54
2023-04-23T13:42:10.591Z,21.76
2023-04-23T13:44:37.027Z,20.12
2023-04-23T13:47:03.562Z,18.93
2023-04-23T13:49:30.056Z,18.59
2023-04-23T13:51:58.861Z,18.23
2023-04-23T13:54:28.209Z,17.74
2023-04-23T13:56:55.781Z,18.03
2023-04-23T13:59:22.343Z,19.12
2023-04-23T14:01:50.313Z,19.72
2023-04-23T14:04:17.548Z,18.60
2023-04-23T14:06:44.311Z,18.84
2023-04-23T14:09:11.313Z,17.78
2023-04-23T14:11:39.541Z,18.34
2023-04-23T14:14:07.362Z,19.34
2023-04-23T14:16:33.969Z,20.39
2023-04-23T14:19:00.603Z,20.77
2023-04-23T14:21:27.514Z,21.12
2023-04-23T14:24:08.014Z,19.67
2023-04-23T14:26:47.965Z,20.07
2023-04-23T14:29:23.335Z,19.01
2023-04-23T14:31:50.251Z,19.73
2023-04-23T14:34:16.743Z,19.70
2023-04-23T14:36:43.246Z,18.75
2023-04-23T14:39:09.706Z,18.64
2023-04-23T14:41:36.198Z,17.94
2023-04-23T14:44:03.916Z,18.72
2023-04-23T14:46:30.518Z,19.20
2023-04-23T14:48:57.093Z,19.64
2023-04-23T14:51:23.860Z,18.80
2023-04-23T14:53:51.164Z,18.23
2023-04-23T14:56:17.699Z,18.20
2023-04-23T14:58:44.275Z,18.04
2023-04-23T15:01:10.738Z,18.10
2023-04-23T15:03:37.753Z,18.30
2023-04-23T15:06:06.647Z,17.98
2023-04-23T15:08:33.489Z,17.80
2023-04-23T15:11:00.156Z,17.43
2023-04-23T15:13:35.731Z,17.34
2023-04-23T15:16:03.901Z,17.43
2023-04-23T15:18:30.382Z,17.10
2023-04-23T15:20:56.782Z,17.10
2023-04-23T15:23:24.214Z,16.91
2023-04-23T15:25:52.217Z,16.90
2023-04-23T15:28:18.907Z,16.93
2023-04-23T15:30:45.458Z,16.90
2023-04-23T15:33:11.923Z,16.76
2023-04-23T15:35:38.487Z,16.80
2023-04-23T15:38:04.998Z,16.82
2023-04-23T15:40:31.879Z,16.64
2023-04-23T15:42:58.883Z,16.78
2023-04-23T15:45:25.369Z,16.80
2023-04-23T15:47:52.095Z,16.84
2023-04-23T15:50:22.394Z,17.03
2023-04-23T15:52:50.467Z,17.05
2023-04-23T15:55:17.749Z,16.87
2023-04-23T15:57:44.260Z,16.78
2023-04-23T16:00:11.261Z,16.75
2023-04-23T16:02:38.003Z,16.68
2023-04-23T16:05:05.199Z,16.66
2023-04-23T16:07:31.806Z,16.70
2023-04-23T16:09:58.274Z,16.73
2023-04-23T16:12:24.814Z,16.79
2023-04-23T16:14:51.379Z,16.65
2023-04-23T16:17:17.855Z,16.75
2023-04-23T16:19:44.577Z,16.49
2023-04-23T16:22:11.405Z,16.49
2023-04-23T16:24:37.993Z,16.33
2023-04-23T16:27:06.618Z,16.44
2023-04-23T16:29:33.074Z,16.42
2023-04-23T16:31:59.596Z,16.32
2023-04-23T16:34:26.054Z,16.24
2023-04-23T16:36:52.580Z,16.20
2023-04-23T16:39:19.054Z,16.13
2023-04-23T16:41:45.568Z,15.93
2023-04-23T16:44:12.397Z,15.51
2023-04-23T16:46:39.333Z,14.71
2023-04-23T16:49:05.949Z,14.09
2023-04-23T16:51:33.190Z,13.77
2023-04-23T16:53:59.863Z,13.43
2023-04-23T16:56:26.365Z,13.39
2023-04-23T16:58:52.896Z,13.23
2023-04-23T17:01:19.514Z,12.94
2023-04-23T17:03:46.218Z,12.62
2023-04-23T17:06:30.449Z,12.46
2023-04-23T17:08:59.009Z,12.47
2023-04-23T17:11:30.110Z,12.31
2023-04-23T17:13:57.627Z,12.18
2023-04-23T17:16:27.832Z,12.02
2023-04-23T17:18:55.568Z,12.09
2023-04-23T17:21:22.603Z,12.23
2023-04-23T17:23:49.210Z,12.31
2023-04-23T17:26:15.715Z,12.10
2023-04-23T17:28:42.502Z,12.18
2023-04-23T17:31:09.390Z,12.12
2023-04-23T17:33:35.979Z,12.05
2023-04-23T17:36:02.597Z,12.15
2023-04-23T17:38:29.585Z,12.11
2023-04-23T17:40:56.434Z,12.04
2023-04-23T17:43:22.873Z,12.10
2023-04-23T17:45:49.562Z,12.11
2023-04-23T17:48:16.289Z,12.24
2023-04-23T17:50:43.716Z,12.29
2023-04-23T17:53:10.546Z,12.24
2023-04-23T17:55:37.144Z,12.19
2023-04-23T17:58:05.720Z,12.19
2023-04-23T18:00:36.885Z,12.15
2023-04-23T18:03:04.116Z,12.05
2023-04-23T18:05:31.192Z,12.02
2023-04-23T18:07:58.091Z,12.03
2023-04-23T18:10:24.728Z,12.02
2023-04-23T18:12:51.462Z,12.05
2023-04-23T18:15:25.559Z,11.94
2023-04-23T18:17:54.605Z,11.89
2023-04-23T18:20:22.840Z,11.83
2023-04-23T18:22:50.740Z,11.77
2023-04-23T18:25:17.325Z,11.72
2023-04-23T18:27:44.036Z,11.67
2023-04-23T18:30:11.879Z,11.68
2023-04-23T18:32:47.107Z,11.64
2023-04-23T18:35:14.210Z,11.72
2023-04-23T18:37:43.964Z,11.70
2023-04-23T18:40:11.461Z,11.70
2023-04-23T18:42:38.449Z,11.72
2023-04-23T18:45:05.702Z,11.70
2023-04-23T18:47:38.283Z,11.67
2023-04-23T18:50:09.965Z,11.63
2023-04-23T18:52:36.800Z,11.58
2023-04-23T18:55:03.474Z,11.65
2023-04-23T18:57:30.208Z,11.56
2023-04-23T18:59:56.873Z,11.50
2023-04-23T19:02:34.536Z,11.26
2023-04-23T19:05:02.443Z,11.18
2023-04-23T19:07:28.968Z,11.22
2023-04-23T19:09:55.569Z,11.18
2023-04-23T19:12:22.268Z,11.16
2023-04-23T19:14:48.874Z,11.16
2023-04-23T19:17:18.659Z,11.03
2023-04-23T19:19:46.248Z,10.96
2023-04-23T19:22:12.841Z,10.91
2023-04-23T19:24:39.639Z,10.88
2023-04-23T19:27:07.124Z,10.82
2023-04-23T19:29:34.148Z,10.75
2023-04-23T19:32:01.104Z,10.75
2023-04-23T19:34:27.682Z,10.68
2023-04-23T19:36:54.236Z,10.73
2023-04-23T19:39:23.183Z,10.68
2023-04-23T19:41:49.819Z,10.60
2023-04-23T19:44:16.265Z,10.70
2023-04-23T19:46:42.899Z,10.69
2023-04-23T19:49:09.616Z,10.66
2023-04-23T19:51:38.019Z,10.62
2023-04-23T19:54:05.077Z,10.61
2023-04-23T19:56:31.860Z,10.55
2023-04-23T19:58:58.348Z,10.52
2023-04-23T20:01:25.513Z,10.53
2023-04-23T20:03:53.662Z,10.53
2023-04-23T20:06:21.220Z,10.59
2023-04-23T20:09:13.664Z,10.63
2023-04-23T20:11:40.186Z,10.63
2023-04-23T20:14:07.119Z,10.63
2023-04-23T20:16:34.435Z,10.64
2023-04-23T20:19:01.844Z,10.57
2023-04-23T20:21:28.262Z,10.66
2023-04-23T20:23:54.651Z,10.62
2023-04-23T20:26:21.136Z,10.60
2023-04-23T20:28:48.380Z,10.61
2023-04-23T20:31:15.140Z,10.55
2023-04-23T20:33:41.712Z,10.72
2023-04-23T20:36:11.125Z,10.80
2023-04-23T20:38:39.029Z,10.95
2023-04-23T20:41:06.013Z,10.99
2023-04-23T20:43:34.204Z,11.03
2023-04-23T20:46:01.009Z,11.09
2023-04-23T20:48:30.608Z,11.08
2023-04-23T20:50:57.665Z,11.07
2023-04-23T20:53:25.722Z,11.06
2023-04-23T20:55:52.452Z,11.08
2023-04-23T20:58:18.999Z,11.07
2023-04-23T21:00:45.856Z,11.06
2023-04-23T21:03:12.546Z,11.09
2023-04-23T21:05:44.360Z,11.09
2023-04-23T21:08:11.387Z,10.98
2023-04-23T21:10:39.157Z,10.93
2023-04-23T21:13:11.110Z,10.88
2023-04-23T21:15:38.524Z,10.82
2023-04-23T21:18:05.873Z,10.80
2023-04-23T21:20:32.525Z,10.75
2023-04-23T21:22:59.023Z,10.71
2023-04-23T21:25:26.719Z,10.82
2023-04-23T21:27:55.393Z,10.84
2023-04-23T21:30:29.519Z,10.80
2023-04-23T21:32:56.196Z,10.76
2023-04-23T21:35:23.128Z,10.71
2023-04-23T21:37:49.625Z,10.69
2023-04-23T21:40:16.159Z,10.66
2023-04-23T21:42:44.776Z,10.65
2023-04-23T21:45:11.488Z,10.59
2023-04-23T21:47:37.966Z,10.58
2023-04-23T21:50:05.140Z,10.61
2023-04-23T21:52:31.744Z,10.64
2023-04-23T21:54:58.096Z,10.71
2023-04-23T21:57:24.512Z,10.72
2023-04-23T21:59:51.174Z,10.80
2023-04-23T22:02:17.676Z,10.84
2023-04-23T22:04:45.012Z,10.88
2023-04-23T22:07:18.300Z,10.86
2023-04-23T22:09:45.010Z,10.90
2023-04-23T22:12:11.846Z,10.92
2023-04-23T22:14:38.277Z,10.96
2023-04-23T22:17:04.997Z,10.97
2023-04-23T22:19:31.528Z,10.91
2023-04-23T22:21:57.967Z,10.86
2023-04-23T22:24:24.631Z,10.98
2023-04-23T22:26:51.058Z,10.95
2023-04-23T22:29:17.467Z,10.92
2023-04-23T22:31:44.176Z,10.95
2023-04-23T22:34:10.892Z,10.96
2023-04-23T22:36:37.504Z,10.90
2023-04-23T22:39:05.835Z,10.96
2023-04-23T22:41:33.793Z,10.96
2023-04-23T22:44:00.822Z,10.99
2023-04-23T22:46:28.000Z,11.00
2023-04-23T22:48:54.703Z,10.97
2023-04-23T22:51:21.142Z,11.03
2023-04-23T22:53:47.564Z,10.94
2023-04-23T22:56:14.080Z,10.85
2023-04-23T22:58:40.609Z,10.81
2023-04-23T23:01:07.170Z,10.79
2023-04-23T23:03:33.761Z,10.72
2023-04-23T23:06:00.224Z,10.65
2023-04-23T23:08:26.837Z,10.60
2023-04-23T23:10:53.572Z,10.46
2023-04-23T23:13:20.109Z,10.58
2023-04-23T23:15:46.905Z,10.54
2023-04-23T23:18:13.455Z,10.51
2023-04-23T23:20:41.109Z,10.41
2023-04-23T23:23:07.588Z,10.40
2023-04-23T23:25:38.240Z,10.37
2023-04-23T23:28:05.430Z,10.31
2023-04-23T23:30:32.110Z,10.27
2023-04-23T23:32:58.684Z,10.17
2023-04-23T23:35:25.335Z,10.14
2023-04-23T23:37:51.789Z,10.06
2023-04-23T23:40:18.320Z,10.00
2023-04-23T23:42:44.746Z,10.03
2023-04-23T23:45:11.441Z,10.04
2023-04-23T23:47:38.192Z,10.03
2023-04-23T23:50:05.752Z,10.09
2023-04-23T23:52:32.286Z,10.08
2023-04-23T23:54:58.792Z,10.06
2023-04-23T23:57:25.189Z,10.05
2023-04-23T23:59:51.610Z,9.99
